createdAt,value
2019-05-01T00:02:30.308Z,11.10
2019-05-01T00:07:35.700Z,8.90
2019-05-01T00:12:38.422Z,10.93
2019-05-01T00:17:42.748Z,10.67
2019-05-01T00:22:45.202Z,12.37
2019-05-01T00:27:47.839Z,8.60
2019-05-01T00:32:50.517Z,10.93
2019-05-01T00:37:53.664Z,12.87
2019-05-01T00:42:56.425Z,14.07
2019-05-01T00:47:58.863Z,9.23
2019-05-01T00:53:01.500Z,10.90
2019-05-01T00:58:19.844Z,9.60
2019-05-01T01:03:22.622Z,9.37
2019-05-01T01:08:25.376Z,14.80
2019-05-01T01:13:29.239Z,9.20
2019-05-01T01:18:32.054Z,10.43
2019-05-01T01:23:35.613Z,9.33
2019-05-01T01:28:47.425Z,9.73
2019-05-01T01:33:50.241Z,9.67
2019-05-01T01:38:53.725Z,13.33
2019-05-01T01:44:27.715Z,10.80
2019-05-01T01:55:08.964Z,11.97
2019-05-01T02:00:15.068Z,9.87
2019-05-01T02:05:32.011Z,15.43
2019-05-01T02:10:43.083Z,10.43
2019-05-01T02:21:21.395Z,8.70
2019-05-01T02:26:27.167Z,12.20
2019-05-01T02:31:39.286Z,13.27
2019-05-01T02:36:43.786Z,11.90
2019-05-01T02:41:50.738Z,9.60
2019-05-01T02:46:57.647Z,8.27
2019-05-01T02:52:04.985Z,9.17
2019-05-01T02:57:14.255Z,11.87
2019-05-01T03:02:18.125Z,9.97
2019-05-01T03:07:23.564Z,11.63
2019-05-01T03:12:29.453Z,9.37
2019-05-01T03:17:41.794Z,14.23
2019-05-01T03:23:07.537Z,9.03
2019-05-01T03:45:35.066Z,9.67
2019-05-01T03:50:38.192Z,8.83
2019-05-01T03:55:40.945Z,11.43
2019-05-01T04:01:13.503Z,9.27
2019-05-01T04:06:15.960Z,12.63
2019-05-01T04:11:19.844Z,9.77
2019-05-01T04:16:23.158Z,11.83
2019-05-01T04:21:29.880Z,12.33
2019-05-01T04:26:32.823Z,11.73
2019-05-01T04:31:55.339Z,13.90
2019-05-01T04:37:01.729Z,13.00
2019-05-01T04:42:04.366Z,9.37
2019-05-01T04:47:07.037Z,12.20
2019-05-01T04:52:09.705Z,13.73
2019-05-01T04:57:12.555Z,10.80
2019-05-01T05:02:27.626Z,10.67
2019-05-01T05:07:30.420Z,16.13
2019-05-01T05:12:47.389Z,10.73
2019-05-01T05:17:50.198Z,13.37
2019-05-01T05:22:53.949Z,13.83
2019-05-01T05:27:58.934Z,12.70
2019-05-01T05:33:03.708Z,12.47
2019-05-01T05:38:16.571Z,11.03
2019-05-01T05:43:19.503Z,17.47
2019-05-01T05:48:24.069Z,10.77
2019-05-01T05:53:32.771Z,13.20
2019-05-01T05:58:43.993Z,12.97
2019-05-01T06:04:22.222Z,12.07
2019-05-01T06:09:35.264Z,14.50
2019-05-01T06:14:49.144Z,10.10
2019-05-01T06:19:59.575Z,13.13
2019-05-01T06:25:22.313Z,13.27
2019-05-01T06:30:21.401Z,12.67
2019-05-01T06:35:24.632Z,14.93
2019-05-01T06:40:39.543Z,14.10
2019-05-01T06:45:54.248Z,16.43
2019-05-01T06:51:13.000Z,17.70
2019-05-01T06:56:27.282Z,27.63
2019-05-01T07:01:33.536Z,20.40
2019-05-01T07:06:36.361Z,19.43
2019-05-01T07:11:42.403Z,17.90
2019-05-01T07:16:46.788Z,79.70
2019-05-01T07:21:50.549Z,24.80
2019-05-01T07:26:54.532Z,30.13
2019-05-01T07:32:01.640Z,31.37
2019-05-01T07:37:03.136Z,36.37
2019-05-01T07:42:24.207Z,35.80
2019-05-01T07:47:37.075Z,41.63
2019-05-01T07:52:40.517Z,41.57
2019-05-01T07:57:44.550Z,47.30
2019-05-01T08:02:47.543Z,47.17
2019-05-01T08:07:50.144Z,35.77
2019-05-01T08:12:55.396Z,46.57
2019-05-01T08:18:11.584Z,43.93
2019-05-01T08:23:13.903Z,38.93
2019-05-01T08:28:27.684Z,37.63
2019-05-01T08:34:06.688Z,32.87
2019-05-01T08:39:10.483Z,33.63
2019-05-01T08:44:14.824Z,30.30
2019-05-01T08:49:24.277Z,36.23
2019-05-01T08:54:28.872Z,30.17
2019-05-01T08:59:32.818Z,26.93
2019-05-01T09:04:35.976Z,29.60
2019-05-01T09:10:00.548Z,28.70
2019-05-01T09:15:07.157Z,27.53
2019-05-01T09:20:12.555Z,29.47
2019-05-01T09:25:18.214Z,33.50
2019-05-01T09:30:28.812Z,31.57
2019-05-01T09:35:32.751Z,35.37
2019-05-01T09:40:35.187Z,28.17
2019-05-01T09:45:37.635Z,27.77
2019-05-01T09:50:46.591Z,27.57
2019-05-01T09:56:03.216Z,28.03
2019-05-01T10:01:06.515Z,31.83
2019-05-01T10:06:12.741Z,27.93
2019-05-01T10:11:14.667Z,28.50
2019-05-01T10:16:17.422Z,26.90
2019-05-01T10:21:22.370Z,26.57
2019-05-01T10:26:32.252Z,24.63
2019-05-01T10:31:57.386Z,26.47
2019-05-01T10:37:06.499Z,28.17
2019-05-01T10:42:18.750Z,24.77
2019-05-01T10:47:21.511Z,22.70
2019-05-01T10:52:24.004Z,18.93
2019-05-01T10:57:28.019Z,21.40
2019-05-01T11:02:31.015Z,24.93
2019-05-01T11:07:33.727Z,18.87
2019-05-01T11:12:36.748Z,18.63
2019-05-01T11:17:39.307Z,20.63
2019-05-01T11:22:41.904Z,14.80
2019-05-01T11:27:44.360Z,19.00
2019-05-01T11:33:04.955Z,20.67
2019-05-01T11:38:37.093Z,16.13
2019-05-01T11:43:43.227Z,18.07
2019-05-01T11:48:50.785Z,19.77
2019-05-01T11:53:53.626Z,20.77
2019-05-01T11:58:56.611Z,21.90
2019-05-01T12:03:59.699Z,23.80
2019-05-01T12:09:04.303Z,19.37
2019-05-01T12:14:08.803Z,24.53
2019-05-01T12:19:12.395Z,19.73
2019-05-01T12:24:14.955Z,19.40
2019-05-01T12:29:17.535Z,21.40
2019-05-01T12:34:23.374Z,19.73
2019-05-01T12:39:42.630Z,20.37
2019-05-01T12:44:45.430Z,20.33
2019-05-01T12:49:50.072Z,20.33
2019-05-01T12:54:58.782Z,19.87
2019-05-01T13:00:08.797Z,20.03
2019-05-01T13:05:09.408Z,24.33
2019-05-01T13:10:12.849Z,20.00
2019-05-01T13:15:15.483Z,20.03
2019-05-01T13:20:18.689Z,25.27
2019-05-01T13:25:21.188Z,23.47
2019-05-01T13:30:55.288Z,21.77
2019-05-01T13:35:58.492Z,20.73
2019-05-01T13:41:01.394Z,17.70
2019-05-01T13:46:03.904Z,19.40
2019-05-01T13:51:06.938Z,16.20
2019-05-01T13:56:21.720Z,16.20
2019-05-01T14:01:24.414Z,19.93
2019-05-01T14:06:27.356Z,17.70
2019-05-01T14:11:30.128Z,17.13
2019-05-01T14:22:36.375Z,20.27
2019-05-01T14:27:38.828Z,14.13
2019-05-01T14:32:43.692Z,18.00
2019-05-01T14:37:47.264Z,22.70
2019-05-01T14:42:49.717Z,15.73
2019-05-01T14:47:52.267Z,15.73
2019-05-01T14:52:55.979Z,12.95
2019-05-01T14:57:59.316Z,13.30
2019-05-01T15:03:02.597Z,12.78
2019-05-01T15:08:05.242Z,11.47
2019-05-01T15:13:20.427Z,11.97
2019-05-01T15:18:42.240Z,11.17
2019-05-01T15:23:56.391Z,16.80
2019-05-01T15:29:03.467Z,10.57
2019-05-01T15:34:06.612Z,17.47
2019-05-01T15:44:36.437Z,11.40
2019-05-01T15:49:39.879Z,9.18
2019-05-01T15:54:42.938Z,12.05
2019-05-01T15:59:45.727Z,14.35
2019-05-01T16:04:48.035Z,14.05
2019-05-01T16:09:50.887Z,14.00
2019-05-01T16:14:53.351Z,10.95
2019-05-01T16:19:55.686Z,10.20
2019-05-01T16:25:00.263Z,7.12
2019-05-01T16:30:03.661Z,12.23
2019-05-01T16:35:07.995Z,9.10
2019-05-01T16:40:28.581Z,15.25
2019-05-01T16:45:32.019Z,8.65
2019-05-01T16:50:36.223Z,9.25
2019-05-01T16:55:38.627Z,11.20
2019-05-01T17:01:43.349Z,9.20
2019-05-01T17:06:53.252Z,10.10
2019-05-01T17:11:55.887Z,11.75
2019-05-01T17:16:58.449Z,10.95
2019-05-01T17:22:00.835Z,10.30
2019-05-01T17:27:03.339Z,9.58
2019-05-01T17:32:07.543Z,10.98
2019-05-01T17:37:10.658Z,13.83
2019-05-01T17:42:13.379Z,16.13
2019-05-01T17:47:17.835Z,14.00
2019-05-01T17:52:21.520Z,12.57
2019-05-01T17:57:26.920Z,13.97
2019-05-01T18:02:51.743Z,13.33
2019-05-01T18:07:54.411Z,16.93
2019-05-01T18:12:56.903Z,15.93
2019-05-01T18:17:59.508Z,16.60
2019-05-01T18:23:22.325Z,14.87
2019-05-01T18:28:43.208Z,18.63
2019-05-01T18:33:56.904Z,16.97
2019-05-01T18:39:16.238Z,18.20
2019-05-01T18:49:57.154Z,21.70
2019-05-01T19:13:15.062Z,23.60
2019-05-01T19:24:06.491Z,20.50
2019-05-01T19:35:02.717Z,26.47
2019-05-01T19:40:10.101Z,22.20
2019-05-01T19:50:59.409Z,21.33
2019-05-01T19:56:06.744Z,21.97
2019-05-01T20:01:14.299Z,25.77
2019-05-01T20:06:20.769Z,24.63
2019-05-01T20:11:29.034Z,27.93
2019-05-01T20:16:33.439Z,25.63
2019-05-01T20:21:36.832Z,29.77
2019-05-01T20:48:55.910Z,28.00
2019-05-01T20:54:01.079Z,29.57
2019-05-01T20:59:04.961Z,29.67
2019-05-01T21:04:31.091Z,30.90
2019-05-01T21:15:24.743Z,29.03
2019-05-01T22:24:31.107Z,35.20
2019-05-01T22:29:36.664Z,30.40
2019-05-01T22:51:23.565Z,36.03
2019-05-01T22:56:26.933Z,33.57
2019-05-01T23:01:32.533Z,29.60
2019-05-01T23:06:37.319Z,36.67
2019-05-01T23:34:26.054Z,35.67
